sensor_id;sensor_type;location;lat;lon;timestamp;pressure;altitude;pressure_sealevel;temperature;humidity
7660;BME280;3872;47.902;8.162;2023-06-14T00:01:34;91502.69;;;13.23;51.97
7660;BME280;3872;47.902;8.162;2023-06-14T00:04:00;91506.34;;;13.40;51.33
7660;BME280;3872;47.902;8.162;2023-06-14T00:06:28;91500.78;;;13.83;50.64
7660;BME280;3872;47.902;8.162;2023-06-14T00:08:54;91501.56;;;13.33;52.39
7660;BME280;3872;47.902;8.162;2023-06-14T00:11:21;91493.75;;;12.99;53.86
7660;BME280;3872;47.902;8.162;2023-06-14T00:13:50;91492.91;;;13.15;53.76
7660;BME280;3872;47.902;8.162;2023-06-14T00:16:16;91492.31;;;13.48;51.61
7660;BME280;3872;47.902;8.162;2023-06-14T00:18:44;91491.25;;;13.02;53.59
7660;BME280;3872;47.902;8.162;2023-06-14T00:21:11;91497.59;;;13.01;53.23
7660;BME280;3872;47.902;8.162;2023-06-14T00:23:37;91501.19;;;13.14;53.56
7660;BME280;3872;47.902;8.162;2023-06-14T00:26:05;91497.50;;;12.89;54.93
7660;BME280;3872;47.902;8.162;2023-06-14T00:28:31;91491.13;;;12.99;54.21
7660;BME280;3872;47.902;8.162;2023-06-14T00:31:00;91493.38;;;13.17;53.26
7660;BME280;3872;47.902;8.162;2023-06-14T00:33:27;91483.19;;;12.99;54.41
7660;BME280;3872;47.902;8.162;2023-06-14T00:35:54;91487.59;;;13.24;53.37
7660;BME280;3872;47.902;8.162;2023-06-14T00:38:20;91484.25;;;13.06;53.61
7660;BME280;3872;47.902;8.162;2023-06-14T00:40:48;91482.50;;;13.10;53.11
7660;BME280;3872;47.902;8.162;2023-06-14T00:43:14;91485.03;;;13.07;54.03
7660;BME280;3872;47.902;8.162;2023-06-14T00:45:42;91483.69;;;13.30;51.62
7660;BME280;3872;47.902;8.162;2023-06-14T00:48:11;91493.78;;;12.90;54.43
7660;BME280;3872;47.902;8.162;2023-06-14T00:50:38;91484.84;;;13.12;52.61
7660;BME280;3872;47.902;8.162;2023-06-14T00:53:06;91480.81;;;12.59;56.55
7660;BME280;3872;47.902;8.162;2023-06-14T00:55:33;91484.22;;;12.68;56.46
7660;BME280;3872;47.902;8.162;2023-06-14T00:58:00;91482.94;;;11.85;62.47
7660;BME280;3872;47.902;8.162;2023-06-14T01:00:27;91481.94;;;12.49;57.84
7660;BME280;3872;47.902;8.162;2023-06-14T01:02:54;91476.09;;;12.82;55.83
7660;BME280;3872;47.902;8.162;2023-06-14T01:05:23;91487.31;;;13.17;55.01
7660;BME280;3872;47.902;8.162;2023-06-14T01:08:02;91480.38;;;12.57;57.33
7660;BME280;3872;47.902;8.162;2023-06-14T01:10:37;91485.81;;;12.43;58.03
7660;BME280;3872;47.902;8.162;2023-06-14T01:13:12;91487.44;;;12.82;55.88
7660;BME280;3872;47.902;8.162;2023-06-14T01:15:43;91479.91;;;13.02;54.96
7660;BME280;3872;47.902;8.162;2023-06-14T01:18:10;91482.75;;;12.88;55.81
7660;BME280;3872;47.902;8.162;2023-06-14T01:20:46;91484.81;;;12.74;57.19
7660;BME280;3872;47.902;8.162;2023-06-14T01:23:16;91479.94;;;12.38;57.69
7660;BME280;3872;47.902;8.162;2023-06-14T01:25:42;91490.66;;;12.24;58.79
7660;BME280;3872;47.902;8.162;2023-06-14T01:28:11;91484.13;;;12.30;58.30
7660;BME280;3872;47.902;8.162;2023-06-14T01:30:40;91478.84;;;11.44;65.31
7660;BME280;3872;47.902;8.162;2023-06-14T01:33:10;91489.75;;;12.20;59.08
7660;BME280;3872;47.902;8.162;2023-06-14T01:35:38;91480.13;;;12.15;60.15
7660;BME280;3872;47.902;8.162;2023-06-14T01:38:06;91477.50;;;12.07;60.05
7660;BME280;3872;47.902;8.162;2023-06-14T01:40:35;91479.69;;;12.13;58.31
7660;BME280;3872;47.902;8.162;2023-06-14T01:43:03;91476.56;;;12.11;58.43
7660;BME280;3872;47.902;8.162;2023-06-14T01:45:30;91472.22;;;12.15;58.37
7660;BME280;3872;47.902;8.162;2023-06-14T01:47:58;91477.78;;;11.62;62.71
7660;BME280;3872;47.902;8.162;2023-06-14T01:50:28;91478.25;;;12.16;59.65
7660;BME280;3872;47.902;8.162;2023-06-14T01:52:56;91481.94;;;11.46;63.68
7660;BME280;3872;47.902;8.162;2023-06-14T01:55:23;91476.25;;;12.22;59.28
7660;BME280;3872;47.902;8.162;2023-06-14T01:57:52;91476.56;;;12.20;58.25
7660;BME280;3872;47.902;8.162;2023-06-14T02:00:19;91472.53;;;11.88;60.07
7660;BME280;3872;47.902;8.162;2023-06-14T02:02:47;91474.09;;;11.81;59.19
7660;BME280;3872;47.902;8.162;2023-06-14T02:05:14;91468.41;;;11.13;64.43
7660;BME280;3872;47.902;8.162;2023-06-14T02:07:44;91470.97;;;11.61;60.07
7660;BME280;3872;47.902;8.162;2023-06-14T02:10:11;91469.72;;;11.67;60.69
7660;BME280;3872;47.902;8.162;2023-06-14T02:12:37;91471.78;;;11.96;58.49
7660;BME280;3872;47.902;8.162;2023-06-14T02:15:07;91474.38;;;11.62;61.81
7660;BME280;3872;47.902;8.162;2023-06-14T02:17:34;91467.53;;;11.52;61.12
7660;BME280;3872;47.902;8.162;2023-06-14T02:20:06;91474.88;;;11.81;59.33
7660;BME280;3872;47.902;8.162;2023-06-14T02:22:34;91472.09;;;11.86;58.57
7660;BME280;3872;47.902;8.162;2023-06-14T02:25:01;91470.38;;;11.82;58.65
7660;BME280;3872;47.902;8.162;2023-06-14T02:27:28;91467.69;;;11.73;58.61
7660;BME280;3872;47.902;8.162;2023-06-14T02:29:54;91477.19;;;11.83;58.12
7660;BME280;3872;47.902;8.162;2023-06-14T02:32:22;91470.19;;;11.61;59.20
7660;BME280;3872;47.902;8.162;2023-06-14T02:34:49;91478.19;;;11.30;60.96
7660;BME280;3872;47.902;8.162;2023-06-14T02:37:15;91480.09;;;11.55;60.93
7660;BME280;3872;47.902;8.162;2023-06-14T02:39:42;91473.25;;;11.37;60.30
7660;BME280;3872;47.902;8.162;2023-06-14T02:42:09;91471.72;;;11.53;59.55
7660;BME280;3872;47.902;8.162;2023-06-14T02:44:35;91476.09;;;11.58;58.93
7660;BME280;3872;47.902;8.162;2023-06-14T02:47:02;91475.88;;;11.28;63.00
7660;BME280;3872;47.902;8.162;2023-06-14T02:49:30;91469.16;;;11.05;64.26
7660;BME280;3872;47.902;8.162;2023-06-14T02:51:58;91478.97;;;11.30;61.78
7660;BME280;3872;47.902;8.162;2023-06-14T02:54:24;91472.34;;;11.42;60.22
7660;BME280;3872;47.902;8.162;2023-06-14T02:56:51;91481.66;;;11.56;59.60
7660;BME280;3872;47.902;8.162;2023-06-14T02:59:19;91477.59;;;11.33;61.40
7660;BME280;3872;47.902;8.162;2023-06-14T03:01:47;91481.06;;;10.94;64.79
7660;BME280;3872;47.902;8.162;2023-06-14T03:04:14;91484.22;;;11.30;62.37
7660;BME280;3872;47.902;8.162;2023-06-14T03:06:43;91484.53;;;11.20;61.78
7660;BME280;3872;47.902;8.162;2023-06-14T03:09:15;91485.16;;;11.26;61.21
7660;BME280;3872;47.902;8.162;2023-06-14T03:11:42;91487.75;;;11.09;61.61
7660;BME280;3872;47.902;8.162;2023-06-14T03:14:09;91490.44;;;10.78;65.54
7660;BME280;3872;47.902;8.162;2023-06-14T03:16:37;91486.34;;;11.03;63.32
7660;BME280;3872;47.902;8.162;2023-06-14T03:19:04;91493.00;;;11.00;61.25
7660;BME280;3872;47.902;8.162;2023-06-14T03:21:32;91494.06;;;10.99;62.83
7660;BME280;3872;47.902;8.162;2023-06-14T03:24:04;91499.22;;;10.65;66.50
7660;BME280;3872;47.902;8.162;2023-06-14T03:26:32;91497.81;;;10.36;68.61
7660;BME280;3872;47.902;8.162;2023-06-14T03:28:59;91503.50;;;10.60;66.77
7660;BME280;3872;47.902;8.162;2023-06-14T03:31:28;91502.63;;;10.74;64.72
7660;BME280;3872;47.902;8.162;2023-06-14T03:33:58;91501.59;;;10.52;65.89
7660;BME280;3872;47.902;8.162;2023-06-14T03:36:25;91506.63;;;9.96;72.15
7660;BME280;3872;47.902;8.162;2023-06-14T03:38:54;91505.53;;;10.33;68.63
7660;BME280;3872;47.902;8.162;2023-06-14T03:41:22;91506.19;;;10.69;66.15
7660;BME280;3872;47.902;8.162;2023-06-14T03:43:50;91507.25;;;10.15;69.67
7660;BME280;3872;47.902;8.162;2023-06-14T03:46:16;91516.91;;;10.73;65.20
7660;BME280;3872;47.902;8.162;2023-06-14T03:48:43;91523.97;;;10.64;64.33
7660;BME280;3872;47.902;8.162;2023-06-14T03:51:11;91517.75;;;10.15;67.79
7660;BME280;3872;47.902;8.162;2023-06-14T03:53:38;91517.03;;;10.45;67.27
7660;BME280;3872;47.902;8.162;2023-06-14T03:56:04;91519.44;;;10.33;67.25
7660;BME280;3872;47.902;8.162;2023-06-14T03:58:40;91511.94;;;9.82;71.22
7660;BME280;3872;47.902;8.162;2023-06-14T04:01:06;91519.97;;;9.99;72.32
7660;BME280;3872;47.902;8.162;2023-06-14T04:03:33;91518.16;;;10.22;71.20
7660;BME280;3872;47.902;8.162;2023-06-14T04:06:00;91515.69;;;10.26;68.16
7660;BME280;3872;47.902;8.162;2023-06-14T04:08:27;91523.91;;;10.55;66.47
7660;BME280;3872;47.902;8.162;2023-06-14T04:10:53;91520.03;;;10.30;69.08
7660;BME280;3872;47.902;8.162;2023-06-14T04:13:20;91526.06;;;10.31;68.37
7660;BME280;3872;47.902;8.162;2023-06-14T04:15:49;91517.81;;;10.46;66.75
7660;BME280;3872;47.902;8.162;2023-06-14T04:18:21;91525.50;;;10.34;66.71
7660;BME280;3872;47.902;8.162;2023-06-14T04:20:49;91527.72;;;10.71;65.86
7660;BME280;3872;47.902;8.162;2023-06-14T04:23:17;91529.13;;;10.24;66.61
7660;BME280;3872;47.902;8.162;2023-06-14T04:25:45;91535.13;;;11.09;65.40
7660;BME280;3872;47.902;8.162;2023-06-14T04:28:12;91532.66;;;11.60;61.31
7660;BME280;3872;47.902;8.162;2023-06-14T04:30:41;91537.16;;;11.68;59.11
7660;BME280;3872;47.902;8.162;2023-06-14T04:33:09;91536.75;;;12.01;59.37
7660;BME280;3872;47.902;8.162;2023-06-14T04:35:36;91549.66;;;11.46;62.64
7660;BME280;3872;47.902;8.162;2023-06-14T04:38:04;91548.63;;;11.07;66.94
7660;BME280;3872;47.902;8.162;2023-06-14T04:40:34;91549.47;;;10.85;68.27
7660;BME280;3872;47.902;8.162;2023-06-14T04:43:08;91547.13;;;11.23;66.01
7660;BME280;3872;47.902;8.162;2023-06-14T04:45:39;91555.66;;;11.77;62.35
7660;BME280;3872;47.902;8.162;2023-06-14T04:48:06;91552.91;;;12.34;59.69
7660;BME280;3872;47.902;8.162;2023-06-14T04:50:35;91549.00;;;12.57;58.20
7660;BME280;3872;47.902;8.162;2023-06-14T04:53:01;91549.25;;;12.73;57.81
7660;BME280;3872;47.902;8.162;2023-06-14T04:55:28;91545.75;;;12.43;59.89
7660;BME280;3872;47.902;8.162;2023-06-14T04:57:55;91556.59;;;12.67;58.70
7660;BME280;3872;47.902;8.162;2023-06-14T05:00:21;91546.56;;;12.99;57.30
7660;BME280;3872;47.902;8.162;2023-06-14T05:02:48;91555.81;;;13.30;55.80
7660;BME280;3872;47.902;8.162;2023-06-14T05:05:18;91543.25;;;12.64;62.52
7660;BME280;3872;47.902;8.162;2023-06-14T05:07:47;91549.16;;;13.24;56.81
7660;BME280;3872;47.902;8.162;2023-06-14T05:10:13;91554.72;;;13.90;56.81
7660;BME280;3872;47.902;8.162;2023-06-14T05:12:41;91557.97;;;13.66;58.73
7660;BME280;3872;47.902;8.162;2023-06-14T05:15:09;91551.50;;;14.05;56.72
7660;BME280;3872;47.902;8.162;2023-06-14T05:17:36;91556.78;;;13.85;56.92
7660;BME280;3872;47.902;8.162;2023-06-14T05:20:04;91550.75;;;14.26;56.79
7660;BME280;3872;47.902;8.162;2023-06-14T05:22:31;91552.53;;;14.87;55.39
7660;BME280;3872;47.902;8.162;2023-06-14T05:24:59;91543.19;;;15.02;54.20
7660;BME280;3872;47.902;8.162;2023-06-14T05:27:25;91555.72;;;15.26;54.36
7660;BME280;3872;47.902;8.162;2023-06-14T05:29:52;91544.84;;;15.76;52.88
7660;BME280;3872;47.902;8.162;2023-06-14T05:32:21;91552.03;;;15.76;53.17
7660;BME280;3872;47.902;8.162;2023-06-14T05:34:47;91543.75;;;15.77;54.22
7660;BME280;3872;47.902;8.162;2023-06-14T05:37:14;91545.47;;;16.10;52.11
7660;BME280;3872;47.902;8.162;2023-06-14T05:39:40;91553.66;;;15.92;51.75
7660;BME280;3872;47.902;8.162;2023-06-14T05:42:09;91553.69;;;15.80;53.04
7660;BME280;3872;47.902;8.162;2023-06-14T05:44:36;91552.66;;;16.49;52.09
7660;BME280;3872;47.902;8.162;2023-06-14T05:47:03;91551.47;;;16.34;52.82
7660;BME280;3872;47.902;8.162;2023-06-14T05:49:29;91551.50;;;16.74;51.42
7660;BME280;3872;47.902;8.162;2023-06-14T05:51:56;91557.94;;;17.17;48.92
7660;BME280;3872;47.902;8.162;2023-06-14T05:54:22;91553.28;;;17.14;48.80
7660;BME280;3872;47.902;8.162;2023-06-14T05:56:49;91555.28;;;17.48;48.22
7660;BME280;3872;47.902;8.162;2023-06-14T05:59:17;91554.34;;;17.56;47.98
7660;BME280;3872;47.902;8.162;2023-06-14T06:01:43;91558.38;;;17.97;46.82
7660;BME280;3872;47.902;8.162;2023-06-14T06:04:10;91560.88;;;17.90;46.57
7660;BME280;3872;47.902;8.162;2023-06-14T06:06:36;91554.59;;;18.14;46.23
7660;BME280;3872;47.902;8.162;2023-06-14T06:09:03;91552.00;;;18.53;45.10
7660;BME280;3872;47.902;8.162;2023-06-14T06:11:30;91555.63;;;18.45;45.77
7660;BME280;3872;47.902;8.162;2023-06-14T06:13:56;91551.31;;;18.75;44.44
7660;BME280;3872;47.902;8.162;2023-06-14T06:16:24;91558.41;;;18.87;45.27
7660;BME280;3872;47.902;8.162;2023-06-14T06:18:50;91561.19;;;18.94;44.37
7660;BME280;3872;47.902;8.162;2023-06-14T06:21:17;91560.84;;;18.95;44.08
7660;BME280;3872;47.902;8.162;2023-06-14T06:23:44;91555.81;;;19.32;43.19
7660;BME280;3872;47.902;8.162;2023-06-14T06:26:10;91560.13;;;19.40;41.67
7660;BME280;3872;47.902;8.162;2023-06-14T06:28:37;91557.00;;;19.35;41.80
7660;BME280;3872;47.902;8.162;2023-06-14T06:31:03;91566.28;;;19.86;40.84
7660;BME280;3872;47.902;8.162;2023-06-14T06:33:31;91562.31;;;19.54;40.43
7660;BME280;3872;47.902;8.162;2023-06-14T06:35:58;91562.16;;;19.66;40.42
7660;BME280;3872;47.902;8.162;2023-06-14T06:38:25;91567.19;;;19.48;41.01
7660;BME280;3872;47.902;8.162;2023-06-14T06:40:51;91569.81;;;20.17;40.50
7660;BME280;3872;47.902;8.162;2023-06-14T06:43:19;91571.59;;;20.09;41.25
7660;BME280;3872;47.902;8.162;2023-06-14T06:45:47;91575.63;;;20.49;39.89
7660;BME280;3872;47.902;8.162;2023-06-14T06:48:14;91566.13;;;20.51;38.04
7660;BME280;3872;47.902;8.162;2023-06-14T06:50:42;91565.22;;;20.70;39.19
7660;BME280;3872;47.902;8.162;2023-06-14T06:53:09;91570.28;;;21.08;39.42
7660;BME280;3872;47.902;8.162;2023-06-14T06:55:35;91563.66;;;21.69;36.71
7660;BME280;3872;47.902;8.162;2023-06-14T06:58:02;91575.09;;;22.07;37.01
7660;BME280;3872;47.902;8.162;2023-06-14T07:00:30;91579.13;;;22.34;36.34
7660;BME280;3872;47.902;8.162;2023-06-14T07:02:57;91575.97;;;21.77;36.22
7660;BME280;3872;47.902;8.162;2023-06-14T07:05:23;91571.28;;;22.66;34.99
7660;BME280;3872;47.902;8.162;2023-06-14T07:07:51;91570.25;;;22.26;33.83
7660;BME280;3872;47.902;8.162;2023-06-14T07:10:17;91566.00;;;22.73;33.26
7660;BME280;3872;47.902;8.162;2023-06-14T07:12:44;91571.03;;;22.85;32.62
7660;BME280;3872;47.902;8.162;2023-06-14T07:15:12;91569.38;;;23.57;32.23
7660;BME280;3872;47.902;8.162;2023-06-14T07:17:38;91572.03;;;22.66;33.99
7660;BME280;3872;47.902;8.162;2023-06-14T07:20:06;91575.09;;;22.65;32.70
7660;BME280;3872;47.902;8.162;2023-06-14T07:22:39;91579.13;;;22.34;32.10
7660;BME280;3872;47.902;8.162;2023-06-14T07:25:09;91563.50;;;23.26;29.56
7660;BME280;3872;47.902;8.162;2023-06-14T07:27:37;91573.91;;;23.35;30.92
7660;BME280;3872;47.902;8.162;2023-06-14T07:30:05;91575.75;;;23.13;29.77
7660;BME280;3872;47.902;8.162;2023-06-14T07:32:32;91574.81;;;24.13;28.51
7660;BME280;3872;47.902;8.162;2023-06-14T07:34:59;91570.19;;;24.17;28.22
7660;BME280;3872;47.902;8.162;2023-06-14T07:37:25;91575.94;;;23.77;27.81
7660;BME280;3872;47.902;8.162;2023-06-14T07:39:52;91578.63;;;23.95;27.67
7660;BME280;3872;47.902;8.162;2023-06-14T07:42:20;91589.44;;;22.87;29.21
7660;BME280;3872;47.902;8.162;2023-06-14T07:44:46;91579.66;;;23.37;27.01
7660;BME280;3872;47.902;8.162;2023-06-14T07:47:13;91584.63;;;23.31;28.04
7660;BME280;3872;47.902;8.162;2023-06-14T07:49:40;91586.66;;;23.66;26.93
7660;BME280;3872;47.902;8.162;2023-06-14T07:52:06;91584.41;;;24.00;26.98
7660;BME280;3872;47.902;8.162;2023-06-14T07:54:33;91582.81;;;23.67;28.04
7660;BME280;3872;47.902;8.162;2023-06-14T07:56:59;91583.63;;;23.89;27.49
7660;BME280;3872;47.902;8.162;2023-06-14T07:59:28;91582.81;;;24.88;26.82
7660;BME280;3872;47.902;8.162;2023-06-14T08:01:54;91581.31;;;24.66;26.73
7660;BME280;3872;47.902;8.162;2023-06-14T08:04:21;91576.84;;;25.50;26.29
7660;BME280;3872;47.902;8.162;2023-06-14T08:06:47;91578.44;;;25.36;25.13
7660;BME280;3872;47.902;8.162;2023-06-14T08:09:14;91576.91;;;25.35;26.52
7660;BME280;3872;47.902;8.162;2023-06-14T08:11:41;91567.78;;;25.08;27.38
7660;BME280;3872;47.902;8.162;2023-06-14T08:14:08;91573.47;;;26.01;25.67
7660;BME280;3872;47.902;8.162;2023-06-14T08:16:36;91576.53;;;26.06;25.07
7660;BME280;3872;47.902;8.162;2023-06-14T08:19:02;91576.22;;;26.86;23.84
7660;BME280;3872;47.902;8.162;2023-06-14T08:21:29;91578.88;;;26.94;24.81
7660;BME280;3872;47.902;8.162;2023-06-14T08:23:58;91583.16;;;25.11;25.93
7660;BME280;3872;47.902;8.162;2023-06-14T08:26:25;91580.53;;;24.93;26.58
7660;BME280;3872;47.902;8.162;2023-06-14T08:28:54;91585.94;;;24.76;26.79
7660;BME280;3872;47.902;8.162;2023-06-14T08:31:20;91584.19;;;25.39;26.58
7660;BME280;3872;47.902;8.162;2023-06-14T08:33:49;91592.41;;;25.03;25.95
7660;BME280;3872;47.902;8.162;2023-06-14T08:36:15;91585.50;;;24.99;25.97
7660;BME280;3872;47.902;8.162;2023-06-14T08:38:42;91581.06;;;25.51;25.83
7660;BME280;3872;47.902;8.162;2023-06-14T08:41:11;91579.59;;;26.08;24.71
7660;BME280;3872;47.902;8.162;2023-06-14T08:43:38;91587.81;;;26.46;24.45
7660;BME280;3872;47.902;8.162;2023-06-14T08:46:06;91593.72;;;26.23;24.92
7660;BME280;3872;47.902;8.162;2023-06-14T08:48:34;91590.84;;;25.20;26.51
7660;BME280;3872;47.902;8.162;2023-06-14T08:51:03;91596.66;;;24.97;26.55
7660;BME280;3872;47.902;8.162;2023-06-14T08:53:31;91590.84;;;25.09;27.19
7660;BME280;3872;47.902;8.162;2023-06-14T08:55:59;91598.94;;;26.51;26.11
7660;BME280;3872;47.902;8.162;2023-06-14T08:58:27;91601.56;;;27.03;23.43
7660;BME280;3872;47.902;8.162;2023-06-14T09:00:55;91604.78;;;26.91;26.25
7660;BME280;3872;47.902;8.162;2023-06-14T09:03:22;91607.69;;;25.42;26.51
7660;BME280;3872;47.902;8.162;2023-06-14T09:05:56;91609.28;;;26.05;25.34
7660;BME280;3872;47.902;8.162;2023-06-14T09:08:25;91611.66;;;26.51;25.41
7660;BME280;3872;47.902;8.162;2023-06-14T09:10:55;91605.81;;;27.01;24.49
7660;BME280;3872;47.902;8.162;2023-06-14T09:13:22;91605.22;;;26.79;25.00
7660;BME280;3872;47.902;8.162;2023-06-14T09:15:50;91603.09;;;26.08;26.34
7660;BME280;3872;47.902;8.162;2023-06-14T09:18:16;91601.66;;;25.89;25.92
7660;BME280;3872;47.902;8.162;2023-06-14T09:20:45;91605.03;;;26.07;25.23
7660;BME280;3872;47.902;8.162;2023-06-14T09:23:12;91603.72;;;26.78;25.54
7660;BME280;3872;47.902;8.162;2023-06-14T09:25:43;91602.34;;;26.04;25.54
7660;BME280;3872;47.902;8.162;2023-06-14T09:28:12;91611.69;;;25.89;25.30
7660;BME280;3872;47.902;8.162;2023-06-14T09:30:38;91615.78;;;27.07;23.98
7660;BME280;3872;47.902;8.162;2023-06-14T09:33:05;91613.22;;;26.93;25.16
7660;BME280;3872;47.902;8.162;2023-06-14T09:35:32;91615.09;;;26.55;25.55
7660;BME280;3872;47.902;8.162;2023-06-14T09:37:59;91620.88;;;26.57;24.76
7660;BME280;3872;47.902;8.162;2023-06-14T09:40:26;91604.19;;;27.44;23.68
7660;BME280;3872;47.902;8.162;2023-06-14T09:42:54;91620.69;;;26.30;24.33
7660;BME280;3872;47.902;8.162;2023-06-14T09:45:23;91620.16;;;25.91;25.42
7660;BME280;3872;47.902;8.162;2023-06-14T09:47:50;91624.19;;;27.16;23.67
7660;BME280;3872;47.902;8.162;2023-06-14T09:50:17;91621.03;;;27.21;23.32
7660;BME280;3872;47.902;8.162;2023-06-14T09:52:44;91626.88;;;27.16;24.51
7660;BME280;3872;47.902;8.162;2023-06-14T09:55:16;91623.47;;;27.46;24.04
7660;BME280;3872;47.902;8.162;2023-06-14T09:57:45;91614.69;;;28.30;21.65
7660;BME280;3872;47.902;8.162;2023-06-14T10:00:18;91627.00;;;27.06;23.79
7660;BME280;3872;47.902;8.162;2023-06-14T10:02:50;91617.75;;;26.62;25.04
7660;BME280;3872;47.902;8.162;2023-06-14T10:05:19;91614.91;;;28.12;23.07
7660;BME280;3872;47.902;8.162;2023-06-14T10:07:49;91616.47;;;29.10;22.66
7660;BME280;3872;47.902;8.162;2023-06-14T10:10:19;91611.56;;;28.31;22.69
7660;BME280;3872;47.902;8.162;2023-06-14T10:12:45;91619.63;;;26.10;24.50
7660;BME280;3872;47.902;8.162;2023-06-14T10:15:19;91607.72;;;27.04;23.63
7660;BME280;3872;47.902;8.162;2023-06-14T10:17:49;91602.75;;;28.51;22.62
7660;BME280;3872;47.902;8.162;2023-06-14T10:20:24;91600.97;;;29.53;21.24
7660;BME280;3872;47.902;8.162;2023-06-14T10:22:56;91611.78;;;28.67;21.19
7660;BME280;3872;47.902;8.162;2023-06-14T10:25:28;91610.09;;;27.70;23.58
7660;BME280;3872;47.902;8.162;2023-06-14T10:28:14;91616.09;;;28.11;22.07
7660;BME280;3872;47.902;8.162;2023-06-14T10:31:08;91613.69;;;26.40;22.57
7660;BME280;3872;47.902;8.162;2023-06-14T10:33:39;91608.00;;;28.08;21.32
7660;BME280;3872;47.902;8.162;2023-06-14T10:36:10;91607.53;;;28.16;22.29
7660;BME280;3872;47.902;8.162;2023-06-14T10:38:37;91601.72;;;28.91;21.16
7660;BME280;3872;47.902;8.162;2023-06-14T10:41:04;91600.38;;;29.82;20.27
7660;BME280;3872;47.902;8.162;2023-06-14T10:43:31;91594.06;;;30.24;19.81
7660;BME280;3872;47.902;8.162;2023-06-14T10:46:18;91596.25;;;29.38;21.04
7660;BME280;3872;47.902;8.162;2023-06-14T10:48:48;91604.88;;;28.39;22.83
7660;BME280;3872;47.902;8.162;2023-06-14T10:51:16;91595.28;;;29.05;21.85
7660;BME280;3872;47.902;8.162;2023-06-14T10:53:46;91596.56;;;29.20;21.89
7660;BME280;3872;47.902;8.162;2023-06-14T10:56:28;91596.81;;;29.85;21.06
7660;BME280;3872;47.902;8.162;2023-06-14T10:58:56;91600.28;;;29.06;22.23
7660;BME280;3872;47.902;8.162;2023-06-14T11:01:32;91597.53;;;31.06;19.97
7660;BME280;3872;47.902;8.162;2023-06-14T11:04:08;91599.63;;;30.53;19.85
7660;BME280;3872;47.902;8.162;2023-06-14T11:06:46;91602.81;;;28.47;21.42
7660;BME280;3872;47.902;8.162;2023-06-14T11:09:31;91605.63;;;28.40;21.40
7660;BME280;3872;47.902;8.162;2023-06-14T11:12:07;91592.84;;;30.09;20.60
7660;BME280;3872;47.902;8.162;2023-06-14T11:14:35;91589.88;;;29.84;20.83
7660;BME280;3872;47.902;8.162;2023-06-14T11:17:04;91588.13;;;30.46;20.24
7660;BME280;3872;47.902;8.162;2023-06-14T11:19:30;91589.75;;;31.08;19.68
7660;BME280;3872;47.902;8.162;2023-06-14T11:21:57;91592.31;;;30.50;21.13
7660;BME280;3872;47.902;8.162;2023-06-14T11:24:25;91592.28;;;31.44;19.69
7660;BME280;3872;47.902;8.162;2023-06-14T11:26:51;91592.81;;;30.78;20.36
7660;BME280;3872;47.902;8.162;2023-06-14T11:29:20;91598.84;;;29.21;21.85
7660;BME280;3872;47.902;8.162;2023-06-14T11:31:47;91587.97;;;30.85;20.40
7660;BME280;3872;47.902;8.162;2023-06-14T11:34:15;91592.63;;;31.17;19.64
7660;BME280;3872;47.902;8.162;2023-06-14T11:36:42;91576.31;;;31.01;20.26
7660;BME280;3872;47.902;8.162;2023-06-14T11:39:09;91588.09;;;30.13;20.81
7660;BME280;3872;47.902;8.162;2023-06-14T11:41:37;91579.19;;;32.35;18.21
7660;BME280;3872;47.902;8.162;2023-06-14T11:44:04;91587.78;;;30.44;20.58
7660;BME280;3872;47.902;8.162;2023-06-14T11:46:31;91580.28;;;29.79;19.16
7660;BME280;3872;47.902;8.162;2023-06-14T11:48:58;91583.69;;;31.45;19.06
7660;BME280;3872;47.902;8.162;2023-06-14T11:51:30;91578.56;;;30.57;19.25
7660;BME280;3872;47.902;8.162;2023-06-14T11:53:56;91580.59;;;32.39;18.04
7660;BME280;3872;47.902;8.162;2023-06-14T11:56:23;91588.28;;;32.03;18.46
7660;BME280;3872;47.902;8.162;2023-06-14T11:58:50;91579.59;;;32.33;18.44
7660;BME280;3872;47.902;8.162;2023-06-14T12:01:17;91578.59;;;31.19;19.71
7660;BME280;3872;47.902;8.162;2023-06-14T12:03:47;91582.97;;;31.29;19.13
7660;BME280;3872;47.902;8.162;2023-06-14T12:06:15;91579.44;;;30.54;20.62
7660;BME280;3872;47.902;8.162;2023-06-14T12:08:44;91572.94;;;30.81;19.97
7660;BME280;3872;47.902;8.162;2023-06-14T12:11:14;91567.28;;;32.41;18.79
7660;BME280;3872;47.902;8.162;2023-06-14T12:13:42;91569.97;;;33.26;16.96
7660;BME280;3872;47.902;8.162;2023-06-14T12:16:10;91565.00;;;33.12;18.43
7660;BME280;3872;47.902;8.162;2023-06-14T12:18:38;91563.16;;;34.49;15.81
7660;BME280;3872;47.902;8.162;2023-06-14T12:21:06;91552.91;;;34.00;16.88
7660;BME280;3872;47.902;8.162;2023-06-14T12:23:42;91561.22;;;33.97;17.35
7660;BME280;3872;47.902;8.162;2023-06-14T12:26:12;91565.13;;;32.49;16.96
7660;BME280;3872;47.902;8.162;2023-06-14T12:28:40;91574.69;;;31.90;17.58
7660;BME280;3872;47.902;8.162;2023-06-14T12:31:06;91567.09;;;33.86;16.95
7660;BME280;3872;47.902;8.162;2023-06-14T12:33:33;91566.47;;;33.82;16.51
7660;BME280;3872;47.902;8.162;2023-06-14T12:35:59;91567.56;;;34.95;16.33
7660;BME280;3872;47.902;8.162;2023-06-14T12:38:26;91570.75;;;34.54;16.67
7660;BME280;3872;47.902;8.162;2023-06-14T12:40:52;91573.66;;;32.98;17.79
7660;BME280;3872;47.902;8.162;2023-06-14T12:43:20;91564.81;;;33.85;17.40
7660;BME280;3872;47.902;8.162;2023-06-14T12:45:47;91573.31;;;33.43;16.68
7660;BME280;3872;47.902;8.162;2023-06-14T12:48:13;91559.34;;;33.41;17.07
7660;BME280;3872;47.902;8.162;2023-06-14T12:50:40;91566.91;;;33.59;16.31
7660;BME280;3872;47.902;8.162;2023-06-14T12:53:07;91569.34;;;31.86;19.40
7660;BME280;3872;47.902;8.162;2023-06-14T12:55:33;91569.38;;;32.37;18.92
7660;BME280;3872;47.902;8.162;2023-06-14T12:58:00;91557.63;;;33.78;16.27
7660;BME280;3872;47.902;8.162;2023-06-14T13:00:28;91576.03;;;31.69;18.46
7660;BME280;3872;47.902;8.162;2023-06-14T13:02:56;91579.06;;;32.51;18.02
7660;BME280;3872;47.902;8.162;2023-06-14T13:05:23;91573.72;;;32.47;18.38
7660;BME280;3872;47.902;8.162;2023-06-14T13:07:50;91564.69;;;35.54;15.68
7660;BME280;3872;47.902;8.162;2023-06-14T13:10:17;91570.78;;;35.21;16.23
7660;BME280;3872;47.902;8.162;2023-06-14T13:12:44;91571.22;;;35.56;15.62
7660;BME280;3872;47.902;8.162;2023-06-14T13:15:10;91569.72;;;35.74;15.44
7660;BME280;3872;47.902;8.162;2023-06-14T13:17:39;91578.47;;;32.94;17.83
7660;BME280;3872;47.902;8.162;2023-06-14T13:20:07;91573.59;;;32.76;17.87
7660;BME280;3872;47.902;8.162;2023-06-14T13:22:33;91574.50;;;33.64;17.17
7660;BME280;3872;47.902;8.162;2023-06-14T13:25:00;91576.44;;;32.09;18.61
7660;BME280;3872;47.902;8.162;2023-06-14T13:27:27;91583.22;;;30.41;19.93